Time;durP1;ratioP1;P1;durP2;ratioP2;P2;SDS_P1;SDS_P2;PMS_P1;PMS_P2;Temp;Humidity;BMP_temperature;BMP_pressure;BME280_temperature;BME280_humidity;BME280_pressure;Samples;Min_cycle;Max_cycle;Signal;HPM_P1;HPM_P2
2022/08/20 00:00:47;;;;;;;8.48;6.93;;;;;;;29.78;49.51;100064.47;5067307;28;20123;-67
2022/08/20 00:03:14;;;;;;;8.07;7.18;;;;;;;29.78;49.32;100073.44;5074011;28;20028;-68
2022/08/20 00:05:44;;;;;;;10.45;6.63;;;;;;;29.75;49.73;100073.78;5074383;28;20150;-68
2022/08/20 00:08:10;;;;;;;12.13;6.72;;;;;;;29.78;49.28;100078.84;5072078;28;20035;-67
2022/08/20 00:10:38;;;;;;;11.45;6.82;;;;;;;29.83;49.19;100076.50;5074003;28;20040;-67
2022/08/20 00:13:06;;;;;;;9.48;6.03;;;;;;;29.84;49.51;100077.34;5074195;28;20044;-67
2022/08/20 00:15:34;;;;;;;10.82;7.18;;;;;;;29.79;49.55;100085.13;5061038;28;20024;-67
2022/08/20 00:18:01;;;;;;;11.88;7.45;;;;;;;29.75;49.51;100075.63;5060790;28;20032;-67
2022/08/20 00:20:29;;;;;;;14.38;7.47;;;;;;;29.66;49.92;100081.03;5073776;28;20480;-67
2022/08/20 00:22:56;;;;;;;10.30;7.10;;;;;;;29.64;49.91;100068.66;5073310;28;20039;-67
2022/08/20 00:25:23;;;;;;;8.35;7.20;;;;;;;29.57;50.02;100065.78;5073778;28;20051;-68
2022/08/20 00:27:48;;;;;;;9.52;7.07;;;;;;;29.50;50.00;100075.50;5073793;28;20037;-68
2022/08/20 00:30:15;;;;;;;9.18;6.70;;;;;;;29.45;50.22;100070.59;5071519;28;20033;-67
2022/08/20 00:32:51;;;;;;;7.07;6.32;;;;;;;29.36;50.79;100065.28;5073153;28;20042;-68
2022/08/20 00:35:21;;;;;;;8.85;7.10;;;;;;;29.33;50.40;100065.63;5073740;28;20048;-67
2022/08/20 00:37:47;;;;;;;10.38;6.60;;;;;;;29.31;50.61;100078.47;5070059;28;20032;-68
2022/08/20 00:40:15;;;;;;;8.50;6.90;;;;;;;29.29;50.66;100073.22;5063259;28;20111;-68
2022/08/20 00:42:46;;;;;;;14.48;7.80;;;;;;;29.28;51.03;100076.06;5056479;28;20033;-67
2022/08/20 00:45:12;;;;;;;8.60;7.00;;;;;;;29.26;51.01;100059.16;5066741;28;20456;-67
2022/08/20 00:47:45;;;;;;;11.20;7.55;;;;;;;29.23;51.29;100051.38;5054005;28;20033;-68
2022/08/20 00:50:11;;;;;;;;;;;;;;;28.98;52.57;100042.28;5053855;28;20043;-68
2022/08/20 00:52:40;;;;;;;10.32;7.82;;;;;;;28.88;51.83;100042.34;5053566;28;19959;-67
2022/08/20 00:55:08;;;;;;;9.27;7.95;;;;;;;28.88;52.01;100029.66;5065151;28;20377;-67
2022/08/20 00:57:38;;;;;;;11.40;7.80;;;;;;;28.82;52.34;100037.59;5071738;28;20040;-67
2022/08/20 01:00:10;;;;;;;9.23;8.20;;;;;;;28.80;52.43;100035.03;5069017;28;20083;-67
2022/08/20 01:02:36;;;;;;;11.77;9.02;;;;;;;28.83;52.19;100050.09;5072304;28;20037;-66
2022/08/20 01:05:02;;;;;;;10.70;9.23;;;;;;;28.81;52.24;100047.56;5073345;28;20054;-67
2022/08/20 01:07:33;;;;;;;10.68;8.50;;;;;;;28.87;52.14;100052.31;5071868;28;20024;-67
2022/08/20 01:10:10;;;;;;;10.50;9.40;;;;;;;28.91;52.02;100042.03;5072573;28;20115;-68
2022/08/20 01:12:38;;;;;;;9.63;8.73;;;;;;;28.92;52.07;100044.56;5069608;28;20491;-67
2022/08/20 01:15:10;;;;;;;9.75;8.75;;;;;;;28.96;51.83;100039.69;5063395;28;20029;-67
2022/08/20 01:17:40;;;;;;;11.43;8.90;;;;;;;28.99;51.73;100044.81;5072210;28;20077;-68
2022/08/20 01:20:20;;;;;;;13.85;9.60;;;;;;;28.98;52.26;100045.84;5071831;28;20412;-68
2022/08/20 01:23:25;;;;;;;13.05;9.52;;;;;;;28.98;52.42;100051.25;5073252;28;20621;-68
2022/08/20 01:25:52;;;;;;;13.00;9.90;;;;;;;28.94;52.22;100047.97;5071934;28;20459;-68
2022/08/20 01:28:36;;;;;;;11.50;10.30;;;;;;;28.87;52.69;100044.19;5073323;28;20059;-68
2022/08/20 01:31:05;;;;;;;11.18;9.45;;;;;;;28.82;52.84;100040.28;5070739;28;20020;-68
2022/08/20 01:33:31;;;;;;;12.32;10.73;;;;;;;28.70;53.35;100051.34;5065018;28;20530;-67
2022/08/20 01:35:56;;;;;;;14.65;11.95;;;;;;;28.56;53.89;100046.50;5052719;28;20037;-68
2022/08/20 01:38:22;;;;;;;13.23;11.73;;;;;;;28.40;54.28;100043.69;5052942;28;20132;-68
2022/08/20 01:40:47;;;;;;;14.52;11.40;;;;;;;28.39;54.43;100053.63;5083495;28;20143;-68
2022/08/20 01:43:13;;;;;;;13.87;12.40;;;;;;;28.38;54.60;100043.00;5073015;28;20357;-68
2022/08/20 01:45:39;;;;;;;14.80;12.57;;;;;;;28.39;54.82;100044.69;5070232;28;20395;-68
2022/08/20 01:48:04;;;;;;;16.60;13.20;;;;;;;28.34;54.78;100049.69;5072943;28;20468;-68
2022/08/20 01:50:32;;;;;;;13.52;12.18;;;;;;;28.31;54.80;100050.84;5073023;28;20488;-68
2022/08/20 01:53:10;;;;;;;13.60;12.20;;;;;;;28.32;55.29;100057.09;5066902;28;20033;-67
2022/08/20 01:55:37;;;;;;;13.40;11.95;;;;;;;28.33;55.60;100054.25;5052764;28;20428;-67
2022/08/20 01:58:02;;;;;;;14.52;13.13;;;;;;;28.29;55.70;100047.47;5052707;28;20037;-68
2022/08/20 02:00:28;;;;;;;14.23;12.73;;;;;;;28.28;55.94;100044.91;5060432;28;20150;-68
2022/08/20 02:02:54;;;;;;;17.05;14.25;;;;;;;28.25;56.23;100040.66;5072651;28;20464;-66
2022/08/20 02:05:19;;;;;;;15.10;13.57;;;;;;;28.17;56.85;100041.44;5072911;28;20041;-65
2022/08/20 02:07:45;;;;;;;14.25;12.60;;;;;;;28.19;56.39;100041.28;5073892;28;20036;-66
2022/08/20 02:10:14;;;;;;;13.52;11.82;;;;;;;28.23;56.43;100040.81;5076263;28;20104;-68
2022/08/20 02:12:39;;;;;;;14.15;12.60;;;;;;;28.26;56.68;100049.63;5076677;28;20033;-68
2022/08/20 02:15:09;;;;;;;14.57;13.07;;;;;;;28.31;56.51;100055.41;5071316;28;20029;-65
2022/08/20 02:17:35;;;;;;;14.68;12.40;;;;;;;28.35;56.36;100048.69;5075275;28;20028;-66
2022/08/20 02:20:06;;;;;;;13.48;11.55;;;;;;;28.36;56.12;100048.53;5074437;28;20494;-66
2022/08/20 02:22:42;;;;;;;11.98;10.73;;;;;;;28.34;56.13;100063.19;5075223;28;20035;-68
2022/08/20 02:25:10;;;;;;;10.80;9.80;;;;;;;28.36;55.97;100071.97;5056179;28;20031;-66
2022/08/20 02:27:38;;;;;;;11.38;9.18;;;;;;;28.34;55.65;100064.03;5056255;28;20090;-66
2022/08/20 02:30:11;;;;;;;14.15;10.52;;;;;;;28.34;55.49;100066.75;5056859;28;20112;-66
2022/08/20 02:32:37;;;;;;;10.40;9.40;;;;;;;28.35;55.45;100073.00;5075230;28;20040;-67
2022/08/20 02:35:11;;;;;;;10.90;9.80;;;;;;;28.36;55.35;100080.97;5076629;28;20123;-66
2022/08/20 02:37:38;;;;;;;14.25;12.43;;;;;;;28.39;55.60;100088.75;5076221;28;20032;-66
2022/08/20 02:40:06;;;;;;;11.57;10.10;;;;;;;28.35;55.53;100083.78;5075582;28;20049;-67
2022/08/20 02:42:33;;;;;;;15.70;13.07;;;;;;;28.32;55.44;100095.75;5075818;28;20029;-67
2022/08/20 02:44:59;;;;;;;13.30;11.27;;;;;;;28.28;55.69;100077.31;5074532;28;20074;-67
2022/08/20 02:47:26;;;;;;;13.45;11.77;;;;;;;28.27;55.45;100071.06;5073193;28;20268;-66
2022/08/20 02:49:53;;;;;;;16.02;11.88;;;;;;;28.24;55.95;100085.72;5075663;28;20035;-67
2022/08/20 02:52:18;;;;;;;14.40;12.90;;;;;;;28.21;55.82;100085.19;5071859;28;20055;-66
2022/08/20 02:54:44;;;;;;;13.48;12.18;;;;;;;28.18;56.03;100089.03;5075939;28;20446;-66
2022/08/20 02:57:14;;;;;;;13.85;12.25;;;;;;;28.19;55.74;100093.44;5071266;28;20028;-66
2022/08/20 02:59:39;;;;;;;14.60;13.02;;;;;;;28.22;55.90;100103.94;5066545;28;20029;-66
2022/08/20 03:02:05;;;;;;;15.80;14.27;;;;;;;28.19;55.87;100095.28;5064482;28;20044;-66
2022/08/20 03:04:30;;;;;;;15.18;13.57;;;;;;;28.21;55.66;100094.16;5095080;28;20040;-66
2022/08/20 03:06:57;;;;;;;14.93;13.45;;;;;;;28.19;55.71;100096.13;5095756;28;20040;-67
2022/08/20 03:09:23;;;;;;;13.35;12.05;;;;;;;28.21;55.68;100109.50;5088874;28;20438;-66
2022/08/20 03:11:48;;;;;;;17.23;13.82;;;;;;;28.22;55.68;100116.59;5075349;28;20036;-66
2022/08/20 03:14:13;;;;;;;16.98;15.18;;;;;;;28.24;56.02;100110.03;5057146;28;20041;-66
2022/08/20 03:16:39;;;;;;;17.25;15.55;;;;;;;28.24;55.95;100119.97;5072429;28;20040;-67
2022/08/20 03:19:04;;;;;;;16.10;14.15;;;;;;;28.31;55.75;100112.13;5074393;28;20446;-67
2022/08/20 03:21:29;;;;;;;18.83;16.88;;;;;;;28.33;55.72;100112.84;5068046;28;20044;-68
2022/08/20 03:23:55;;;;;;;16.75;14.70;;;;;;;28.36;55.75;100126.00;5055051;28;20037;-67
2022/08/20 03:26:20;;;;;;;17.45;15.40;;;;;;;28.36;55.58;100118.78;5054991;28;20354;-67
2022/08/20 03:28:46;;;;;;;15.73;13.57;;;;;;;28.35;55.49;100116.22;5056091;28;20385;-67
2022/08/20 03:31:11;;;;;;;16.25;14.50;;;;;;;28.37;55.54;100125.06;5061438;28;20372;-67
2022/08/20 03:33:38;;;;;;;16.35;14.65;;;;;;;28.36;55.45;100123.31;5074585;28;20036;-67
2022/08/20 03:36:04;;;;;;;17.65;15.60;;;;;;;28.34;55.51;100131.59;5074832;28;20082;-67
2022/08/20 03:38:31;;;;;;;18.45;15.02;;;;;;;28.38;55.33;100119.50;5072919;28;20102;-67
2022/08/20 03:40:56;;;;;;;16.65;14.95;;;;;;;28.41;55.26;100121.06;5075205;28;20045;-67
2022/08/20 03:43:23;;;;;;;16.83;15.07;;;;;;;28.43;55.34;100114.47;5074452;28;20047;-66
2022/08/20 03:45:49;;;;;;;16.08;13.80;;;;;;;28.47;55.16;100121.25;5055583;28;20404;-67
2022/08/20 03:48:18;;;;;;;14.50;12.88;;;;;;;28.52;55.03;100128.91;5069988;28;20429;-68
2022/08/20 03:50:45;;;;;;;14.27;12.82;;;;;;;28.57;55.12;100123.06;5064093;28;20025;-67
2022/08/20 03:53:12;;;;;;;14.88;13.38;;;;;;;28.58;55.23;100120.19;5073531;28;20082;-66
2022/08/20 03:55:39;;;;;;;14.65;12.40;;;;;;;28.57;55.33;100125.75;5074117;28;20079;-66
2022/08/20 03:58:07;;;;;;;13.45;12.18;;;;;;;28.64;55.30;100133.06;5074591;28;20047;-66
2022/08/20 04:00:40;;;;;;;12.75;11.43;;;;;;;28.52;55.54;100138.88;5058067;28;20395;-66
2022/08/20 04:03:07;;;;;;;20.17;12.65;;;;;;;28.50;55.71;100136.31;5067430;28;20541;-66
2022/08/20 04:05:33;;;;;;;13.40;11.60;;;;;;;28.46;56.10;100148.44;5054361;28;20491;-68
2022/08/20 04:08:00;;;;;;;12.77;10.48;;;;;;;28.43;56.02;100140.63;5066394;28;20045;-66
2022/08/20 04:10:26;;;;;;;11.65;10.43;;;;;;;28.44;55.77;100135.06;5071946;28;20467;-67
2022/08/20 04:12:51;;;;;;;11.50;10.23;;;;;;;28.46;56.17;100138.47;5065454;28;20044;-68
2022/08/20 04:15:18;;;;;;;13.20;9.57;;;;;;;28.50;55.88;100130.91;5062593;28;20483;-67
2022/08/20 04:17:46;;;;;;;11.82;9.20;;;;;;;28.48;55.97;100135.63;5053912;28;20120;-67
2022/08/20 04:20:17;;;;;;;10.30;8.23;;;;;;;28.47;56.11;100136.63;5054029;28;20036;-67
2022/08/20 04:22:42;;;;;;;12.77;9.57;;;;;;;28.41;56.18;100137.25;5068771;28;20067;-66
2022/08/20 04:25:08;;;;;;;14.02;10.63;;;;;;;28.42;56.43;100136.25;5074006;28;20059;-66
2022/08/20 04:27:37;;;;;;;11.57;9.43;;;;;;;28.37;56.53;100127.75;5062194;28;20040;-67
2022/08/20 04:30:09;;;;;;;12.20;8.07;;;;;;;28.35;56.51;100135.97;5065150;28;20068;-66
2022/08/20 04:32:35;;;;;;;;;;;;;;;28.28;57.01;100139.44;5072118;28;20032;-68
2022/08/20 04:35:03;;;;;;;11.75;7.63;;;;;;;28.23;56.86;100146.16;5070555;28;20054;-68
2022/08/20 04:37:29;;;;;;;10.55;8.57;;;;;;;28.29;56.58;100144.72;5074081;28;20060;-66
2022/08/20 04:42:39;;;;;;;11.38;9.43;;;;;;;28.35;56.42;100156.75;5071938;28;20062;-66
2022/08/20 04:45:05;;;;;;;10.18;8.40;;;;;;;28.41;56.60;100148.91;5065651;28;20041;-67
2022/08/20 04:47:32;;;;;;;12.07;8.02;;;;;;;28.44;56.18;100143.19;5061877;28;20128;-68
2022/08/20 04:49:59;;;;;;;9.95;7.47;;;;;;;28.53;56.14;100141.44;5065445;28;20039;-67
2022/08/20 04:52:26;;;;;;;11.80;8.10;;;;;;;28.61;55.97;100149.59;5072644;28;20036;-67
2022/08/20 04:54:53;;;;;;;10.20;8.32;;;;;;;28.66;55.82;100135.63;5071904;28;20040;-66
2022/08/20 04:57:18;;;;;;;8.65;7.47;;;;;;;28.73;55.67;100132.16;5069661;28;20044;-67
2022/08/20 04:59:44;;;;;;;9.65;7.32;;;;;;;28.79;55.28;100124.41;5070769;28;20056;-67
2022/08/20 05:02:11;;;;;;;9.27;6.95;;;;;;;28.85;55.00;100123.78;5057873;28;20033;-67
2022/08/20 05:04:36;;;;;;;11.02;7.45;;;;;;;28.92;55.13;100130.25;5056321;28;20102;-67
2022/08/20 05:07:02;;;;;;;12.32;8.75;;;;;;;28.94;55.02;100128.25;5058085;28;20044;-67
2022/08/20 05:09:28;;;;;;;13.93;8.93;;;;;;;29.02;54.62;100132.91;5073837;28;20392;-67
2022/08/20 05:11:53;;;;;;;9.07;7.78;;;;;;;29.08;54.48;100135.78;5070616;28;20040;-67
2022/08/20 05:14:18;;;;;;;13.70;9.20;;;;;;;29.06;54.75;100147.81;5064547;28;20072;-67
2022/08/20 05:16:44;;;;;;;9.57;7.95;;;;;;;29.13;54.50;100138.91;5065663;28;20051;-67
2022/08/20 05:19:11;;;;;;;12.32;8.18;;;;;;;29.17;54.43;100134.88;5068549;28;20044;-66
2022/08/20 05:21:37;;;;;;;12.82;8.30;;;;;;;29.13;54.70;100144.31;5064415;28;20024;-68
2022/08/20 05:24:05;;;;;;;9.65;7.22;;;;;;;29.19;54.36;100140.09;5066196;28;20104;-68
2022/08/20 05:26:30;;;;;;;9.02;6.97;;;;;;;29.27;54.05;100137.44;5053283;28;20530;-68
2022/08/20 05:28:55;;;;;;;10.55;7.40;;;;;;;29.37;53.76;100145.47;5062258;28;20044;-67
2022/08/20 05:31:21;;;;;;;8.60;6.20;;;;;;;29.54;53.50;100139.13;5069478;28;20032;-67
2022/08/20 05:33:47;;;;;;;12.20;6.90;;;;;;;29.72;53.16;100127.38;5076413;28;20035;-68
2022/08/20 05:36:13;;;;;;;9.88;7.10;;;;;;;29.83;52.77;100129.81;5093249;28;20169;-67
2022/08/20 05:38:39;;;;;;;11.50;7.20;;;;;;;29.91;52.37;100119.00;5073547;28;20055;-66
2022/08/20 05:41:04;;;;;;;11.40;7.47;;;;;;;30.04;52.13;100122.06;5072406;28;20412;-67
2022/08/20 05:43:32;;;;;;;10.48;6.93;;;;;;;30.25;51.74;100128.97;5067154;28;20047;-66
2022/08/20 05:45:58;;;;;;;10.63;6.72;;;;;;;30.49;50.94;100136.28;5075145;28;20479;-66
2022/08/20 05:48:24;;;;;;;14.20;7.10;;;;;;;30.73;50.61;100127.31;5060165;28;20166;-68
2022/08/20 05:50:53;;;;;;;10.45;6.40;;;;;;;30.94;49.80;100118.69;5057723;28;20033;-68
2022/08/20 05:53:18;;;;;;;11.32;6.95;;;;;;;30.91;49.87;100119.84;5072715;28;20123;-68
2022/08/20 05:55:45;;;;;;;11.60;7.18;;;;;;;30.95;49.49;100112.22;5072414;28;20112;-68
2022/08/20 05:58:17;;;;;;;9.00;6.15;;;;;;;31.05;48.97;100116.47;5064574;28;20058;-67
2022/08/20 06:00:43;;;;;;;9.80;6.43;;;;;;;31.19;48.86;100109.47;5075510;28;20121;-67
2022/08/20 06:05:53;;;;;;;9.10;6.47;;;;;;;31.28;48.62;100100.31;5076560;28;20039;-68
2022/08/20 06:08:18;;;;;;;9.10;6.03;;;;;;;31.31;48.74;100104.56;5089613;28;20032;-69
2022/08/20 06:10:44;;;;;;;10.68;5.85;;;;;;;31.35;48.53;100101.31;5096630;28;20039;-69
2022/08/20 06:13:10;;;;;;;9.00;6.20;;;;;;;31.32;48.34;100098.97;5090336;28;20039;-71
2022/08/20 06:15:35;;;;;;;9.68;6.07;;;;;;;31.31;48.74;100105.41;5076352;28;20032;-70
2022/08/20 06:18:06;;;;;;;10.65;6.70;;;;;;;31.29;48.33;100106.56;5085084;28;20124;-71
2022/08/20 06:20:32;;;;;;;11.35;6.32;;;;;;;31.29;48.49;100101.16;5069842;28;20060;-69
2022/08/20 06:22:58;;;;;;;7.80;5.45;;;;;;;31.31;48.52;100104.56;5056376;28;20075;-68
2022/08/20 06:25:23;;;;;;;9.27;6.47;;;;;;;31.35;48.61;100100.47;5074167;28;20535;-70
2022/08/20 06:27:48;;;;;;;9.07;6.50;;;;;;;31.44;48.45;100109.44;5076228;28;20131;-69
2022/08/20 06:30:16;;;;;;;10.77;7.25;;;;;;;31.47;48.30;100115.34;5068695;28;20106;-70
2022/08/20 06:32:41;;;;;;;9.02;6.40;;;;;;;31.51;47.92;100113.97;5068967;28;20036;-70
2022/08/20 06:35:08;;;;;;;10.00;6.28;;;;;;;31.57;47.88;100123.31;5081580;28;20143;-70
2022/08/20 06:37:36;;;;;;;9.82;7.57;;;;;;;31.63;47.68;100128.88;5080934;28;20032;-69
2022/08/20 06:40:15;;;;;;;12.98;8.18;;;;;;;31.65;47.82;100135.00;5072589;28;20123;-69
2022/08/20 06:42:42;;;;;;;12.82;7.50;;;;;;;31.67;47.56;100131.25;5078084;28;20462;-69
2022/08/20 06:45:16;;;;;;;8.98;7.50;;;;;;;31.70;47.26;100142.59;5075456;28;20044;-69
2022/08/20 06:47:44;;;;;;;9.90;6.45;;;;;;;31.73;47.64;100141.41;5075884;28;20064;-73
2022/08/20 06:50:17;;;;;;;8.18;6.57;;;;;;;31.77;47.49;100142.75;5078476;28;20046;-72
2022/08/20 06:52:43;;;;;;;11.82;7.13;;;;;;;31.78;47.31;100144.44;5081128;28;20036;-72
2022/08/20 06:55:09;;;;;;;12.50;7.47;;;;;;;31.74;47.24;100151.25;5094893;28;20035;-72
2022/08/20 06:57:36;;;;;;;11.80;7.05;;;;;;;31.79;47.04;100146.97;5077020;28;20043;-72
2022/08/20 07:00:08;;;;;;;11.55;7.07;;;;;;;31.82;46.74;100146.63;5075411;28;20075;-72
2022/08/20 07:02:34;;;;;;;10.23;6.53;;;;;;;31.89;46.94;100144.94;5075306;28;20036;-72
2022/08/20 07:05:00;;;;;;;13.63;7.07;;;;;;;31.93;46.94;100145.44;5075369;28;20032;-72
2022/08/20 07:07:26;;;;;;;11.95;6.97;;;;;;;31.92;46.74;100151.88;5073980;28;20032;-72
2022/08/20 07:09:58;;;;;;;11.55;6.40;;;;;;;31.90;46.83;100153.94;5073758;28;20036;-72
2022/08/20 07:12:24;;;;;;;11.20;6.40;;;;;;;31.91;46.89;100155.59;5075177;28;20399;-71
2022/08/20 07:14:49;;;;;;;12.32;7.00;;;;;;;31.80;46.70;100158.72;5076980;28;20041;-72
2022/08/20 07:17:15;;;;;;;7.95;6.30;;;;;;;31.69;46.89;100150.94;5073753;28;20040;-72
2022/08/20 07:19:40;;;;;;;10.65;6.53;;;;;;;31.60;47.18;100155.56;5074918;28;20115;-71
2022/08/20 07:22:06;;;;;;;15.40;6.18;;;;;;;31.58;47.20;100154.88;5074759;28;20040;-71
2022/08/20 07:24:31;;;;;;;10.13;5.85;;;;;;;31.55;46.84;100150.63;5073940;28;20056;-71
2022/08/20 07:26:57;;;;;;;8.63;5.65;;;;;;;31.62;46.97;100157.06;5075233;28;20032;-72
2022/08/20 07:32:32;;;;;;;9.38;5.88;;;;;;;31.67;46.56;100161.13;5073711;28;20063;-71
2022/08/20 07:34:52;;;;;;;8.48;5.38;;;;;;;31.78;46.40;100164.28;5054877;28;20036;-70
2022/08/20 07:37:17;;;;;;;7.63;5.60;;;;;;;31.91;46.32;100173.78;5060939;28;20029;-70
2022/08/20 07:39:47;;;;;;;7.05;5.28;;;;;;;31.99;46.10;100163.72;5074847;28;20055;-69
2022/08/20 07:42:13;;;;;;;10.02;6.00;;;;;;;32.16;45.59;100171.78;5075025;28;20039;-70
2022/08/20 07:44:38;;;;;;;7.38;5.43;;;;;;;32.12;45.69;100174.88;5074707;28;20040;-70
2022/08/20 07:47:05;;;;;;;9.73;6.75;;;;;;;32.16;45.87;100179.94;5075046;28;20055;-71
2022/08/20 07:49:30;;;;;;;9.15;6.00;;;;;;;32.17;45.72;100176.22;5073479;28;20040;-70
2022/08/20 07:51:56;;;;;;;13.00;7.05;;;;;;;32.14;46.04;100186.41;5079586;28;20098;-71
2022/08/20 07:54:21;;;;;;;9.02;6.85;;;;;;;31.98;46.61;100191.91;5073614;28;20039;-70
2022/08/20 07:56:47;;;;;;;13.05;6.20;;;;;;;31.98;46.56;100196.50;5072909;28;20095;-69
2022/08/20 07:59:13;;;;;;;9.50;6.13;;;;;;;31.96;46.42;100201.25;5073978;28;20032;-69
2022/08/20 08:01:38;;;;;;;9.60;6.15;;;;;;;31.94;46.58;100193.28;5074703;28;20036;-68
2022/08/20 08:04:03;;;;;;;8.52;6.05;;;;;;;31.93;46.85;100197.03;5087956;28;20074;-70
2022/08/20 08:06:29;;;;;;;9.57;5.93;;;;;;;31.90;46.88;100200.09;5072685;28;20040;-70
2022/08/20 08:09:06;;;;;;;11.27;6.10;;;;;;;31.92;46.75;100199.91;5074398;28;20056;-71
2022/08/20 08:11:38;;;;;;;7.75;5.22;;;;;;;31.91;46.66;100200.94;5078027;28;20498;-70
2022/08/20 08:14:06;;;;;;;9.75;6.75;;;;;;;31.91;46.61;100207.22;5064120;28;20041;-70
2022/08/20 08:16:33;;;;;;;8.65;5.80;;;;;;;31.90;47.00;100202.81;5073154;28;20029;-70
2022/08/20 08:19:00;;;;;;;10.65;5.63;;;;;;;31.78;46.92;100206.91;5074129;28;20090;-71
2022/08/20 08:21:26;;;;;;;7.60;6.00;;;;;;;31.79;47.08;100203.16;5070151;28;20029;-71
2022/08/20 08:23:52;;;;;;;8.13;5.55;;;;;;;31.82;46.81;100205.53;5067518;28;20033;-71
2022/08/20 08:26:18;;;;;;;9.70;6.07;;;;;;;31.86;46.67;100202.31;5073824;28;20037;-71
2022/08/20 08:28:43;;;;;;;7.57;6.45;;;;;;;31.90;47.10;100197.38;5077258;28;20035;-71
2022/08/20 08:31:10;;;;;;;7.82;5.88;;;;;;;32.01;46.81;100199.72;5074540;28;20049;-70
2022/08/20 08:33:35;;;;;;;10.40;6.43;;;;;;;32.13;46.66;100197.47;5072268;28;20119;-72
2022/08/20 08:36:05;;;;;;;8.25;6.28;;;;;;;32.22;46.52;100199.09;5073720;28;20120;-70
2022/08/20 08:38:33;;;;;;;9.52;6.53;;;;;;;32.28;46.25;100203.00;5073736;28;20040;-72
2022/08/20 08:41:06;;;;;;;7.30;5.85;;;;;;;32.50;46.00;100204.91;5073903;28;20094;-72
2022/08/20 08:43:33;;;;;;;8.20;6.55;;;;;;;32.61;45.69;100209.13;5073752;28;20090;-72
2022/08/20 08:46:05;;;;;;;8.65;6.70;;;;;;;32.62;45.38;100202.63;5073175;28;20044;-72
2022/08/20 08:48:34;;;;;;;9.00;6.90;;;;;;;32.53;45.80;100198.28;5073249;28;20029;-72
2022/08/20 08:51:02;;;;;;;12.18;7.60;;;;;;;32.63;45.46;100204.31;5072840;28;20040;-72
2022/08/20 08:53:32;;;;;;;10.25;6.72;;;;;;;32.82;44.96;100208.44;5072666;28;20025;-74
2022/08/20 08:55:59;;;;;;;10.98;7.55;;;;;;;32.92;44.85;100206.34;5073312;28;20081;-73
2022/08/20 08:58:25;;;;;;;8.15;6.90;;;;;;;32.97;44.70;100203.09;5073830;28;20032;-73
2022/08/20 09:00:50;;;;;;;12.70;8.23;;;;;;;32.94;44.83;100209.75;5073392;28;20495;-74
2022/08/20 09:03:35;;;;;;;9.68;7.95;;;;;;;32.92;44.67;100195.44;5071841;28;20062;-73
2022/08/20 09:06:03;;;;;;;9.30;7.00;;;;;;;33.12;44.36;100197.69;5071588;28;20044;-73
2022/08/20 09:08:37;;;;;;;8.65;7.20;;;;;;;33.20;44.03;100194.91;5072626;28;20031;-72
2022/08/20 09:11:06;;;;;;;10.52;7.53;;;;;;;33.31;43.95;100189.81;5072278;28;20112;-72
2022/08/20 09:13:32;;;;;;;9.98;7.97;;;;;;;33.40;43.97;100189.78;5074375;28;20403;-73
2022/08/20 09:15:58;;;;;;;11.75;8.13;;;;;;;33.33;43.83;100184.22;5073009;28;20502;-72
2022/08/20 09:18:23;;;;;;;9.40;7.75;;;;;;;33.47;43.60;100182.56;5071891;28;20086;-72
2022/08/20 09:20:52;;;;;;;12.85;7.93;;;;;;;33.57;43.45;100185.88;5070266;28;20389;-74
2022/08/20 09:23:18;;;;;;;12.18;8.70;;;;;;;33.57;43.34;100188.59;5050805;28;20048;-70
2022/08/20 09:25:43;;;;;;;10.80;7.78;;;;;;;33.54;43.57;100183.50;5072709;28;20171;-71
2022/08/20 09:28:09;;;;;;;11.13;7.75;;;;;;;33.69;42.87;100187.09;5073468;28;20037;-73
2022/08/20 09:30:35;;;;;;;12.43;7.50;;;;;;;33.77;42.82;100194.31;5086575;28;20436;-73
2022/08/20 09:33:00;;;;;;;9.38;7.72;;;;;;;33.72;42.96;100188.59;5089578;28;20031;-73
2022/08/20 09:35:26;;;;;;;8.82;7.32;;;;;;;33.84;42.57;100192.53;5092932;28;20046;-72
2022/08/20 09:37:52;;;;;;;8.70;7.30;;;;;;;33.86;42.56;100189.63;5092836;28;20036;-73
2022/08/20 09:40:18;;;;;;;11.40;7.35;;;;;;;33.89;42.38;100181.91;5077150;28;20405;-74
2022/08/20 09:42:44;;;;;;;9.70;7.63;;;;;;;33.93;42.10;100187.81;5070150;28;20124;-72
2022/08/20 09:45:11;;;;;;;9.30;7.53;;;;;;;33.87;42.11;100186.69;5071134;28;20042;-73
2022/08/20 09:47:37;;;;;;;10.05;8.20;;;;;;;33.73;42.22;100184.84;5074140;28;20113;-73
2022/08/20 09:50:03;;;;;;;9.30;7.68;;;;;;;33.67;42.23;100186.41;5080003;28;20434;-72
2022/08/20 09:52:32;;;;;;;12.50;8.23;;;;;;;33.70;42.07;100187.94;5074961;28;20441;-73
2022/08/20 09:55:06;;;;;;;12.88;8.00;;;;;;;33.65;41.98;100188.50;5071474;28;20437;-73
2022/08/20 09:57:33;;;;;;;9.82;7.72;;;;;;;33.77;41.85;100186.16;5072256;28;20028;-73
2022/08/20 10:00:03;;;;;;;9.95;7.32;;;;;;;33.92;41.84;100189.72;5071078;28;20468;-71
2022/08/20 10:02:28;;;;;;;11.65;7.47;;;;;;;33.97;41.55;100184.56;5089510;28;20036;-73
2022/08/20 10:04:54;;;;;;;10.48;7.63;;;;;;;33.96;41.79;100182.84;5071664;28;20025;-73
2022/08/20 10:07:19;;;;;;;11.60;7.15;;;;;;;33.98;41.81;100185.41;5070492;28;20387;-72
2022/08/20 10:09:45;;;;;;;11.35;7.65;;;;;;;33.99;41.83;100179.78;5069896;28;20039;-70
2022/08/20 10:12:10;;;;;;;9.20;7.68;;;;;;;33.92;41.84;100177.97;5071101;28;20055;-73
2022/08/20 10:14:35;;;;;;;11.13;7.97;;;;;;;34.00;41.71;100186.06;5069379;28;20072;-73
2022/08/20 10:17:01;;;;;;;9.73;7.50;;;;;;;34.28;41.46;100175.28;5071407;28;20355;-72
2022/08/20 10:19:30;;;;;;;8.50;6.97;;;;;;;34.38;41.35;100167.63;5072637;28;20044;-74
2022/08/20 10:21:56;;;;;;;11.98;8.68;;;;;;;34.37;41.50;100163.22;5070147;28;20040;-73
2022/08/20 10:24:22;;;;;;;10.10;7.82;;;;;;;34.39;41.16;100163.84;5070771;28;20029;-76
2022/08/20 10:26:49;;;;;;;10.15;8.18;;;;;;;34.36;41.37;100164.28;5052709;28;20037;-73
2022/08/20 10:29:15;;;;;;;10.10;8.73;;;;;;;34.26;41.50;100166.44;5070363;28;20541;-73
2022/08/20 10:31:41;;;;;;;9.82;8.07;;;;;;;34.47;41.21;100165.63;5073631;28;20036;-74
2022/08/20 10:34:06;;;;;;;14.38;9.48;;;;;;;34.28;41.64;100167.13;5074427;28;20786;-74
2022/08/20 10:36:32;;;;;;;12.82;9.60;;;;;;;34.24;41.77;100174.00;5076028;28;20033;-74
2022/08/20 10:38:57;;;;;;;10.88;9.43;;;;;;;34.00;42.33;100170.56;5075582;28;20036;-73
2022/08/20 10:41:23;;;;;;;13.15;9.35;;;;;;;33.77;42.73;100169.81;5074176;28;20035;-72
2022/08/20 10:43:49;;;;;;;14.05;10.05;;;;;;;33.88;42.47;100163.88;5075270;28;20078;-71
2022/08/20 10:46:15;;;;;;;14.93;9.52;;;;;;;34.07;41.96;100165.16;5075715;28;20028;-72
2022/08/20 10:48:41;;;;;;;9.65;8.68;;;;;;;34.02;42.44;100165.75;5074994;28;20433;-74
2022/08/20 10:51:07;;;;;;;12.73;9.75;;;;;;;34.06;42.54;100174.38;5075513;28;20032;-73
2022/08/20 10:53:32;;;;;;;13.23;9.20;;;;;;;34.01;42.47;100165.94;5075626;28;20041;-73
2022/08/20 10:55:58;;;;;;;12.43;9.55;;;;;;;33.78;42.71;100164.16;5073813;28;20394;-73
2022/08/20 10:58:25;;;;;;;11.85;9.00;;;;;;;34.25;42.03;100172.94;5075175;28;20073;-72
2022/08/20 11:00:51;;;;;;;11.13;9.50;;;;;;;34.54;41.49;100164.69;5075250;28;20040;-73
2022/08/20 11:03:17;;;;;;;12.88;9.02;;;;;;;34.45;41.73;100163.09;5073098;28;20036;-73
2022/08/20 11:05:43;;;;;;;12.27;9.35;;;;;;;34.46;41.69;100167.50;5074027;28;20029;-73
2022/08/20 11:08:09;;;;;;;15.15;9.55;;;;;;;34.46;41.72;100164.78;5075589;28;20391;-73
2022/08/20 11:10:35;;;;;;;12.50;9.82;;;;;;;34.71;41.26;100161.69;5095067;28;20036;-73
2022/08/20 11:13:02;;;;;;;12.82;9.10;;;;;;;34.89;40.93;100166.69;5094029;28;20036;-72
2022/08/20 11:15:28;;;;;;;11.55;8.35;;;;;;;35.09;40.40;100164.16;5078936;28;20029;-72
2022/08/20 11:17:54;;;;;;;10.15;8.77;;;;;;;35.28;40.08;100164.31;5075152;28;20039;-73
2022/08/20 11:20:23;;;;;;;12.10;10.23;;;;;;;35.22;40.25;100169.72;5073843;28;20036;-73
2022/08/20 11:22:48;;;;;;;12.50;10.07;;;;;;;35.42;39.83;100164.41;5075079;28;20033;-73
2022/08/20 11:25:13;;;;;;;14.70;10.57;;;;;;;34.99;40.50;100165.38;5075309;28;20387;-73
2022/08/20 11:27:43;;;;;;;10.98;9.88;;;;;;;34.45;41.99;100157.66;5074942;28;20032;-73